sensor_id;sensor_type;location;lat;lon;timestamp;P1;durP1;ratioP1;P2;durP2;ratioP2
55013;SDS011;40916;51.632;5.552;2022-09-13T00:01:01;8.1;;;11.4;;
55013;SDS011;40916;51.632;5.552;2022-09-13T00:06:10;7.9;;;11.9;;
55013;SDS011;40916;51.632;5.552;2022-09-13T00:11:00;7.7;;;10.1;;
55013;SDS011;40916;51.632;5.552;2022-09-13T00:16:00;7.7;;;10.2;;
55013;SDS011;40916;51.632;5.552;2022-09-13T00:21:04;7.9;;;10.8;;
55013;SDS011;40916;51.632;5.552;2022-09-13T00:26:04;8;;;11.7;;
55013;SDS011;40916;51.632;5.552;2022-09-13T00:31:00;7.9;;;10.1;;
55013;SDS011;40916;51.632;5.552;2022-09-13T00:36:02;7.7;;;10.8;;
55013;SDS011;40916;51.632;5.552;2022-09-13T00:41:01;7.5;;;13.8;;
55013;SDS011;40916;51.632;5.552;2022-09-13T00:46:00;7.9;;;12.2;;
55013;SDS011;40916;51.632;5.552;2022-09-13T00:51:00;7.4;;;10.5;;
55013;SDS011;40916;51.632;5.552;2022-09-13T00:56:01;8.1;;;11.9;;
55013;SDS011;40916;51.632;5.552;2022-09-13T01:01:00;8.2;;;11.8;;
55013;SDS011;40916;51.632;5.552;2022-09-13T01:06:02;8.2;;;13.8;;
55013;SDS011;40916;51.632;5.552;2022-09-13T01:11:00;8.2;;;12.1;;
55013;SDS011;40916;51.632;5.552;2022-09-13T01:16:00;7.2;;;11.1;;
55013;SDS011;40916;51.632;5.552;2022-09-13T01:21:07;8;;;14.2;;
55013;SDS011;40916;51.632;5.552;2022-09-13T01:26:20;7.3;;;11.3;;
55013;SDS011;40916;51.632;5.552;2022-09-13T01:31:01;7.3;;;10;;
55013;SDS011;40916;51.632;5.552;2022-09-13T01:36:04;7.5;;;11.3;;
55013;SDS011;40916;51.632;5.552;2022-09-13T01:41:04;7.5;;;10.5;;
55013;SDS011;40916;51.632;5.552;2022-09-13T01:46:03;7.5;;;11.4;;
55013;SDS011;40916;51.632;5.552;2022-09-13T01:51:01;7.6;;;9.8;;
55013;SDS011;40916;51.632;5.552;2022-09-13T01:56:01;7.8;;;10.7;;
55013;SDS011;40916;51.632;5.552;2022-09-13T02:01:02;8.2;;;10.7;;
55013;SDS011;40916;51.632;5.552;2022-09-13T02:06:02;8.1;;;12.5;;
55013;SDS011;40916;51.632;5.552;2022-09-13T02:11:03;7.7;;;10.2;;
55013;SDS011;40916;51.632;5.552;2022-09-13T02:16:01;7.8;;;10.1;;
55013;SDS011;40916;51.632;5.552;2022-09-13T02:21:01;7.9;;;11.7;;
55013;SDS011;40916;51.632;5.552;2022-09-13T02:26:00;8.1;;;10.3;;
55013;SDS011;40916;51.632;5.552;2022-09-13T02:31:00;8.7;;;11.1;;
55013;SDS011;40916;51.632;5.552;2022-09-13T02:36:02;8.2;;;13.3;;
55013;SDS011;40916;51.632;5.552;2022-09-13T02:41:02;8.4;;;11.8;;
55013;SDS011;40916;51.632;5.552;2022-09-13T02:46:12;7.5;;;10.9;;
55013;SDS011;40916;51.632;5.552;2022-09-13T02:51:01;8.2;;;14.7;;
55013;SDS011;40916;51.632;5.552;2022-09-13T02:56:02;7.8;;;12.7;;
55013;SDS011;40916;51.632;5.552;2022-09-13T03:01:00;8;;;11.4;;
55013;SDS011;40916;51.632;5.552;2022-09-13T03:06:00;7.9;;;9.5;;
55013;SDS011;40916;51.632;5.552;2022-09-13T03:11:02;7.5;;;10.3;;
55013;SDS011;40916;51.632;5.552;2022-09-13T03:16:03;7.9;;;12.3;;
55013;SDS011;40916;51.632;5.552;2022-09-13T03:21:04;7.7;;;13.1;;
55013;SDS011;40916;51.632;5.552;2022-09-13T03:26:05;7.8;;;11.4;;
55013;SDS011;40916;51.632;5.552;2022-09-13T03:31:01;7.7;;;12.1;;
55013;SDS011;40916;51.632;5.552;2022-09-13T03:36:01;8.5;;;19.8;;
55013;SDS011;40916;51.632;5.552;2022-09-13T03:41:03;6.7;;;8.5;;
55013;SDS011;40916;51.632;5.552;2022-09-13T03:46:01;7;;;9.5;;
55013;SDS011;40916;51.632;5.552;2022-09-13T03:51:00;7;;;8.7;;
55013;SDS011;40916;51.632;5.552;2022-09-13T03:56:00;7.4;;;10.4;;
55013;SDS011;40916;51.632;5.552;2022-09-13T04:01:00;7.1;;;10.6;;
55013;SDS011;40916;51.632;5.552;2022-09-13T04:06:00;7.3;;;10.3;;
55013;SDS011;40916;51.632;5.552;2022-09-13T04:11:00;6.9;;;10.5;;
55013;SDS011;40916;51.632;5.552;2022-09-13T04:16:00;7.6;;;13.2;;
55013;SDS011;40916;51.632;5.552;2022-09-13T04:21:00;7.5;;;11.8;;
55013;SDS011;40916;51.632;5.552;2022-09-13T04:26:00;7.7;;;13.6;;
55013;SDS011;40916;51.632;5.552;2022-09-13T04:31:00;8.3;;;11.6;;
55013;SDS011;40916;51.632;5.552;2022-09-13T04:36:00;8.1;;;14.1;;
55013;SDS011;40916;51.632;5.552;2022-09-13T04:41:00;8.3;;;12.4;;
55013;SDS011;40916;51.632;5.552;2022-09-13T04:46:00;8.3;;;12;;
55013;SDS011;40916;51.632;5.552;2022-09-13T04:51:00;8.4;;;12.1;;
55013;SDS011;40916;51.632;5.552;2022-09-13T04:56:00;8.1;;;10.5;;
55013;SDS011;40916;51.632;5.552;2022-09-13T05:01:00;8.9;;;13.6;;
55013;SDS011;40916;51.632;5.552;2022-09-13T05:06:01;8.6;;;12.5;;
55013;SDS011;40916;51.632;5.552;2022-09-13T05:11:00;8.1;;;13.4;;
55013;SDS011;40916;51.632;5.552;2022-09-13T05:16:01;8.6;;;12.3;;
55013;SDS011;40916;51.632;5.552;2022-09-13T05:21:00;8.8;;;12.8;;
55013;SDS011;40916;51.632;5.552;2022-09-13T05:26:01;8.1;;;10.1;;
55013;SDS011;40916;51.632;5.552;2022-09-13T05:31:01;8.4;;;12.6;;
55013;SDS011;40916;51.632;5.552;2022-09-13T05:36:00;8.2;;;9.9;;
55013;SDS011;40916;51.632;5.552;2022-09-13T05:41:01;9.2;;;14.1;;
55013;SDS011;40916;51.632;5.552;2022-09-13T05:46:01;8.6;;;12.3;;
55013;SDS011;40916;51.632;5.552;2022-09-13T05:51:03;9.4;;;12.3;;
55013;SDS011;40916;51.632;5.552;2022-09-13T05:56:00;9.3;;;11.6;;
55013;SDS011;40916;51.632;5.552;2022-09-13T06:01:00;8.7;;;10.9;;
55013;SDS011;40916;51.632;5.552;2022-09-13T06:06:00;9.8;;;12.6;;
55013;SDS011;40916;51.632;5.552;2022-09-13T06:11:01;9.5;;;15.7;;
55013;SDS011;40916;51.632;5.552;2022-09-13T06:16:01;9.1;;;13.6;;
55013;SDS011;40916;51.632;5.552;2022-09-13T06:21:00;9.1;;;13.8;;
55013;SDS011;40916;51.632;5.552;2022-09-13T06:26:01;8.7;;;14.5;;
55013;SDS011;40916;51.632;5.552;2022-09-13T06:31:00;9.9;;;13.9;;
55013;SDS011;40916;51.632;5.552;2022-09-13T06:36:00;10.5;;;16.5;;
55013;SDS011;40916;51.632;5.552;2022-09-13T06:41:00;10.4;;;16.6;;
55013;SDS011;40916;51.632;5.552;2022-09-13T06:46:00;10.6;;;13.4;;
55013;SDS011;40916;51.632;5.552;2022-09-13T06:51:01;10;;;14;;
55013;SDS011;40916;51.632;5.552;2022-09-13T06:56:01;11.6;;;20.3;;
55013;SDS011;40916;51.632;5.552;2022-09-13T07:01:04;11.8;;;17.5;;
55013;SDS011;40916;51.632;5.552;2022-09-13T07:06:04;12.4;;;19.7;;
55013;SDS011;40916;51.632;5.552;2022-09-13T07:11:00;12.9;;;17.4;;
55013;SDS011;40916;51.632;5.552;2022-09-13T07:16:00;13.9;;;19.6;;
55013;SDS011;40916;51.632;5.552;2022-09-13T07:21:01;14.7;;;21.5;;
55013;SDS011;40916;51.632;5.552;2022-09-13T07:26:00;13.8;;;17.7;;
55013;SDS011;40916;51.632;5.552;2022-09-13T07:31:04;14.6;;;23.7;;
55013;SDS011;40916;51.632;5.552;2022-09-13T07:36:00;16.1;;;22.1;;
55013;SDS011;40916;51.632;5.552;2022-09-13T07:41:00;16.8;;;22.2;;
55013;SDS011;40916;51.632;5.552;2022-09-13T07:46:01;17;;;23.4;;
55013;SDS011;40916;51.632;5.552;2022-09-13T07:51:00;18.5;;;26.7;;
55013;SDS011;40916;51.632;5.552;2022-09-13T07:56:01;17.6;;;27.8;;
55013;SDS011;40916;51.632;5.552;2022-09-13T08:01:02;17.7;;;24.3;;
55013;SDS011;40916;51.632;5.552;2022-09-13T08:06:00;17.5;;;25;;
55013;SDS011;40916;51.632;5.552;2022-09-13T08:11:01;20.8;;;30.6;;
55013;SDS011;40916;51.632;5.552;2022-09-13T08:16:01;21.8;;;29.4;;
55013;SDS011;40916;51.632;5.552;2022-09-13T08:21:00;21.5;;;28.1;;
55013;SDS011;40916;51.632;5.552;2022-09-13T08:26:00;23.1;;;30.4;;
55013;SDS011;40916;51.632;5.552;2022-09-13T08:31:02;22.8;;;29.4;;
55013;SDS011;40916;51.632;5.552;2022-09-13T08:36:00;21.7;;;28.4;;
55013;SDS011;40916;51.632;5.552;2022-09-13T08:41:01;19;;;26.1;;
55013;SDS011;40916;51.632;5.552;2022-09-13T08:46:01;18;;;25;;
55013;SDS011;40916;51.632;5.552;2022-09-13T08:51:01;18.4;;;26.1;;
55013;SDS011;40916;51.632;5.552;2022-09-13T08:56:01;19.9;;;30.7;;
55013;SDS011;40916;51.632;5.552;2022-09-13T09:01:01;18;;;23.1;;
55013;SDS011;40916;51.632;5.552;2022-09-13T09:06:00;17;;;23.7;;
55013;SDS011;40916;51.632;5.552;2022-09-13T09:11:01;16.7;;;23;;
55013;SDS011;40916;51.632;5.552;2022-09-13T09:16:01;16.4;;;22.4;;
55013;SDS011;40916;51.632;5.552;2022-09-13T09:21:00;14.6;;;18.5;;
55013;SDS011;40916;51.632;5.552;2022-09-13T09:26:04;15.2;;;20.6;;
55013;SDS011;40916;51.632;5.552;2022-09-13T09:31:01;11.9;;;18.4;;
55013;SDS011;40916;51.632;5.552;2022-09-13T09:36:01;11;;;15.8;;
55013;SDS011;40916;51.632;5.552;2022-09-13T09:41:02;11.9;;;14.6;;
55013;SDS011;40916;51.632;5.552;2022-09-13T09:46:00;10.8;;;17;;
55013;SDS011;40916;51.632;5.552;2022-09-13T09:51:00;12.8;;;17.7;;
55013;SDS011;40916;51.632;5.552;2022-09-13T09:56:02;9.3;;;13.5;;
55013;SDS011;40916;51.632;5.552;2022-09-13T10:01:00;8.8;;;13.9;;
55013;SDS011;40916;51.632;5.552;2022-09-13T10:06:03;9.4;;;14.5;;
55013;SDS011;40916;51.632;5.552;2022-09-13T10:11:00;8.3;;;11.7;;
55013;SDS011;40916;51.632;5.552;2022-09-13T10:16:01;7.8;;;11.2;;
55013;SDS011;40916;51.632;5.552;2022-09-13T10:21:01;6.8;;;13.1;;
55013;SDS011;40916;51.632;5.552;2022-09-13T10:26:04;8.4;;;10.9;;
55013;SDS011;40916;51.632;5.552;2022-09-13T10:31:01;9;;;15.4;;
55013;SDS011;40916;51.632;5.552;2022-09-13T10:36:00;9.7;;;12.4;;
55013;SDS011;40916;51.632;5.552;2022-09-13T10:41:01;8;;;11.9;;
55013;SDS011;40916;51.632;5.552;2022-09-13T10:46:00;9.5;;;12.1;;
55013;SDS011;40916;51.632;5.552;2022-09-13T10:51:01;8.4;;;12.6;;
55013;SDS011;40916;51.632;5.552;2022-09-13T10:56:00;5.9;;;10.6;;
55013;SDS011;40916;51.632;5.552;2022-09-13T11:01:12;7.3;;;9.6;;
55013;SDS011;40916;51.632;5.552;2022-09-13T11:06:01;6.8;;;10;;
55013;SDS011;40916;51.632;5.552;2022-09-13T11:11:03;7.6;;;12.6;;
55013;SDS011;40916;51.632;5.552;2022-09-13T11:16:01;7.7;;;11.2;;
55013;SDS011;40916;51.632;5.552;2022-09-13T11:21:02;8.3;;;13.5;;
55013;SDS011;40916;51.632;5.552;2022-09-13T11:26:04;6.8;;;12.7;;
55013;SDS011;40916;51.632;5.552;2022-09-13T11:31:03;7;;;9.2;;
55013;SDS011;40916;51.632;5.552;2022-09-13T11:36:08;7.3;;;10.5;;
55013;SDS011;40916;51.632;5.552;2022-09-13T11:41:01;8;;;12.3;;
55013;SDS011;40916;51.632;5.552;2022-09-13T11:46:02;7.9;;;12.6;;
55013;SDS011;40916;51.632;5.552;2022-09-13T11:51:00;10.6;;;14.8;;
55013;SDS011;40916;51.632;5.552;2022-09-13T11:56:00;10.1;;;21.2;;
55013;SDS011;40916;51.632;5.552;2022-09-13T12:01:00;8.8;;;11.8;;
55013;SDS011;40916;51.632;5.552;2022-09-13T12:06:00;7.3;;;10.9;;
55013;SDS011;40916;51.632;5.552;2022-09-13T12:11:01;7.3;;;12.4;;
55013;SDS011;40916;51.632;5.552;2022-09-13T12:16:00;8.5;;;11.7;;
55013;SDS011;40916;51.632;5.552;2022-09-13T12:21:03;9.6;;;12.9;;
55013;SDS011;40916;51.632;5.552;2022-09-13T12:26:01;8.4;;;10.9;;
55013;SDS011;40916;51.632;5.552;2022-09-13T12:31:01;9;;;13.9;;
55013;SDS011;40916;51.632;5.552;2022-09-13T12:36:18;7.6;;;10.2;;
55013;SDS011;40916;51.632;5.552;2022-09-13T12:41:03;7.8;;;10.4;;
55013;SDS011;40916;51.632;5.552;2022-09-13T12:46:04;6.9;;;10.9;;
55013;SDS011;40916;51.632;5.552;2022-09-13T12:51:08;7.1;;;13.3;;
55013;SDS011;40916;51.632;5.552;2022-09-13T12:56:01;8.1;;;13;;
55013;SDS011;40916;51.632;5.552;2022-09-13T13:01:03;5.2;;;10.6;;
55013;SDS011;40916;51.632;5.552;2022-09-13T13:06:06;4.6;;;7;;
55013;SDS011;40916;51.632;5.552;2022-09-13T13:11:01;4.2;;;5.7;;
55013;SDS011;40916;51.632;5.552;2022-09-13T13:16:02;5;;;7.5;;
55013;SDS011;40916;51.632;5.552;2022-09-13T13:21:04;4.5;;;6.6;;
55013;SDS011;40916;51.632;5.552;2022-09-13T13:26:01;3.7;;;5.2;;
55013;SDS011;40916;51.632;5.552;2022-09-13T13:30:59;4.8;;;8;;
55013;SDS011;40916;51.632;5.552;2022-09-13T13:36:14;3.9;;;6.9;;
55013;SDS011;40916;51.632;5.552;2022-09-13T13:41:04;3.2;;;4.5;;
55013;SDS011;40916;51.632;5.552;2022-09-13T13:46:31;2.8;;;6.6;;
55013;SDS011;40916;51.632;5.552;2022-09-13T13:51:16;2.8;;;4.7;;
55013;SDS011;40916;51.632;5.552;2022-09-13T13:56:07;2.5;;;4.6;;
55013;SDS011;40916;51.632;5.552;2022-09-13T14:01:00;2.4;;;5.4;;
55013;SDS011;40916;51.632;5.552;2022-09-13T14:06:01;1.9;;;2.8;;
55013;SDS011;40916;51.632;5.552;2022-09-13T14:11:01;2.1;;;4.7;;
55013;SDS011;40916;51.632;5.552;2022-09-13T14:16:00;2.1;;;4.3;;
55013;SDS011;40916;51.632;5.552;2022-09-13T14:21:00;2.1;;;5;;
55013;SDS011;40916;51.632;5.552;2022-09-13T14:25:59;2;;;4.6;;
55013;SDS011;40916;51.632;5.552;2022-09-13T14:30:59;1.9;;;3.8;;
55013;SDS011;40916;51.632;5.552;2022-09-13T14:36:00;1.7;;;5.5;;
55013;SDS011;40916;51.632;5.552;2022-09-13T14:41:01;1.4;;;3.3;;
55013;SDS011;40916;51.632;5.552;2022-09-13T14:46:01;2;;;3.1;;
55013;SDS011;40916;51.632;5.552;2022-09-13T14:51:01;2;;;4.1;;
55013;SDS011;40916;51.632;5.552;2022-09-13T14:56:00;2.3;;;4.9;;
55013;SDS011;40916;51.632;5.552;2022-09-13T15:01:00;2.1;;;5.5;;
55013;SDS011;40916;51.632;5.552;2022-09-13T15:06:00;2;;;3.9;;
55013;SDS011;40916;51.632;5.552;2022-09-13T15:11:00;1.5;;;4.2;;
55013;SDS011;40916;51.632;5.552;2022-09-13T15:15:59;1.7;;;3.1;;
55013;SDS011;40916;51.632;5.552;2022-09-13T15:21:00;1.9;;;3.8;;
55013;SDS011;40916;51.632;5.552;2022-09-13T15:26:01;2.2;;;5.8;;
55013;SDS011;40916;51.632;5.552;2022-09-13T15:31:00;2.6;;;6.5;;
55013;SDS011;40916;51.632;5.552;2022-09-13T15:36:24;2.7;;;4.6;;
55013;SDS011;40916;51.632;5.552;2022-09-13T15:41:00;3.2;;;6.3;;
55013;SDS011;40916;51.632;5.552;2022-09-13T15:45:59;2.5;;;4.7;;
55013;SDS011;40916;51.632;5.552;2022-09-13T15:51:04;2.2;;;4.4;;
55013;SDS011;40916;51.632;5.552;2022-09-13T15:56:00;2.3;;;6.1;;
55013;SDS011;40916;51.632;5.552;2022-09-13T16:00:59;2.3;;;6.7;;
55013;SDS011;40916;51.632;5.552;2022-09-13T16:05:59;2.3;;;4.1;;
55013;SDS011;40916;51.632;5.552;2022-09-13T16:10:59;2.9;;;5.6;;
55013;SDS011;40916;51.632;5.552;2022-09-13T16:15:59;1.9;;;4.8;;
55013;SDS011;40916;51.632;5.552;2022-09-13T16:20:59;2.5;;;4.8;;
55013;SDS011;40916;51.632;5.552;2022-09-13T16:25:59;2.4;;;6.5;;
55013;SDS011;40916;51.632;5.552;2022-09-13T16:30:59;2.3;;;5.3;;
55013;SDS011;40916;51.632;5.552;2022-09-13T16:35:59;2.3;;;8.3;;
55013;SDS011;40916;51.632;5.552;2022-09-13T16:40:59;2.3;;;4.7;;
55013;SDS011;40916;51.632;5.552;2022-09-13T16:46:04;3.6;;;5.7;;
55013;SDS011;40916;51.632;5.552;2022-09-13T16:51:01;4.2;;;6;;
55013;SDS011;40916;51.632;5.552;2022-09-13T16:56:04;2.9;;;5.4;;
55013;SDS011;40916;51.632;5.552;2022-09-13T17:00:59;2.1;;;4.6;;
55013;SDS011;40916;51.632;5.552;2022-09-13T17:06:00;2.3;;;7.6;;
55013;SDS011;40916;51.632;5.552;2022-09-13T17:10:59;3.6;;;6.8;;
55013;SDS011;40916;51.632;5.552;2022-09-13T17:15:59;2.5;;;5.9;;
55013;SDS011;40916;51.632;5.552;2022-09-13T17:20:59;1.7;;;7.4;;
55013;SDS011;40916;51.632;5.552;2022-09-13T17:25:59;6.8;;;11.1;;
55013;SDS011;40916;51.632;5.552;2022-09-13T17:30:59;3.1;;;7.3;;
55013;SDS011;40916;51.632;5.552;2022-09-13T17:35:59;1.6;;;6.2;;
55013;SDS011;40916;51.632;5.552;2022-09-13T17:41:00;7.5;;;14.4;;
55013;SDS011;40916;51.632;5.552;2022-09-13T17:46:01;1.5;;;5.9;;
55013;SDS011;40916;51.632;5.552;2022-09-13T17:51:00;1.1;;;4.2;;
55013;SDS011;40916;51.632;5.552;2022-09-13T17:55:59;1.1;;;9.2;;
55013;SDS011;40916;51.632;5.552;2022-09-13T18:01:00;1.4;;;7.8;;
55013;SDS011;40916;51.632;5.552;2022-09-13T18:06:00;1.4;;;6.3;;
55013;SDS011;40916;51.632;5.552;2022-09-13T18:11:00;1.6;;;8.9;;
55013;SDS011;40916;51.632;5.552;2022-09-13T18:16:00;1.6;;;7;;
55013;SDS011;40916;51.632;5.552;2022-09-13T18:20:59;1.4;;;5;;
55013;SDS011;40916;51.632;5.552;2022-09-13T18:26:00;1.3;;;5.8;;
55013;SDS011;40916;51.632;5.552;2022-09-13T18:31:00;1.8;;;4.3;;
55013;SDS011;40916;51.632;5.552;2022-09-13T18:36:00;1.4;;;7.3;;
55013;SDS011;40916;51.632;5.552;2022-09-13T18:41:00;1.4;;;6.1;;
55013;SDS011;40916;51.632;5.552;2022-09-13T18:46:00;1.6;;;6.1;;
55013;SDS011;40916;51.632;5.552;2022-09-13T18:50:59;1.3;;;4.6;;
55013;SDS011;40916;51.632;5.552;2022-09-13T18:55:59;1.4;;;7.1;;
55013;SDS011;40916;51.632;5.552;2022-09-13T19:01:00;1;;;3.9;;
55013;SDS011;40916;51.632;5.552;2022-09-13T19:06:07;1.3;;;7.7;;
55013;SDS011;40916;51.632;5.552;2022-09-13T19:10:59;1.2;;;5.5;;
55013;SDS011;40916;51.632;5.552;2022-09-13T19:15:59;1.1;;;7.9;;
55013;SDS011;40916;51.632;5.552;2022-09-13T19:21:00;2.3;;;10;;
55013;SDS011;40916;51.632;5.552;2022-09-13T19:26:01;1.5;;;7.9;;
55013;SDS011;40916;51.632;5.552;2022-09-13T19:31:01;1.1;;;2.9;;
55013;SDS011;40916;51.632;5.552;2022-09-13T19:36:00;1.4;;;6.3;;
55013;SDS011;40916;51.632;5.552;2022-09-13T19:40:59;1.4;;;7.6;;
55013;SDS011;40916;51.632;5.552;2022-09-13T19:45:59;1.2;;;9.3;;
55013;SDS011;40916;51.632;5.552;2022-09-13T19:51:01;1.1;;;5.8;;
55013;SDS011;40916;51.632;5.552;2022-09-13T19:55:59;1.2;;;4.7;;
55013;SDS011;40916;51.632;5.552;2022-09-13T20:00:59;1.1;;;6.1;;
55013;SDS011;40916;51.632;5.552;2022-09-13T20:05:59;0.9;;;7.4;;
55013;SDS011;40916;51.632;5.552;2022-09-13T20:11:02;1.2;;;10.7;;
55013;SDS011;40916;51.632;5.552;2022-09-13T20:15:59;1.6;;;5;;
55013;SDS011;40916;51.632;5.552;2022-09-13T20:21:01;2.5;;;8.3;;
55013;SDS011;40916;51.632;5.552;2022-09-13T20:25:59;1.1;;;5.9;;
55013;SDS011;40916;51.632;5.552;2022-09-13T20:30:59;1.5;;;11.3;;
55013;SDS011;40916;51.632;5.552;2022-09-13T20:36:01;5.6;;;9.7;;
55013;SDS011;40916;51.632;5.552;2022-09-13T20:41:00;2;;;7.2;;
55013;SDS011;40916;51.632;5.552;2022-09-13T20:45:59;1.3;;;3.7;;
55013;SDS011;40916;51.632;5.552;2022-09-13T20:50:59;1;;;4.9;;
55013;SDS011;40916;51.632;5.552;2022-09-13T20:56:01;1.1;;;7.6;;
55013;SDS011;40916;51.632;5.552;2022-09-13T21:01:00;1.1;;;4;;
55013;SDS011;40916;51.632;5.552;2022-09-13T21:05:59;1.1;;;5.1;;
55013;SDS011;40916;51.632;5.552;2022-09-13T21:11:00;1.1;;;3.8;;
55013;SDS011;40916;51.632;5.552;2022-09-13T21:16:01;1;;;4.7;;
55013;SDS011;40916;51.632;5.552;2022-09-13T21:20:59;1;;;3.8;;
55013;SDS011;40916;51.632;5.552;2022-09-13T21:26:00;1.1;;;5.2;;
55013;SDS011;40916;51.632;5.552;2022-09-13T21:30:59;1.3;;;3.8;;
55013;SDS011;40916;51.632;5.552;2022-09-13T21:35:59;1.3;;;7.7;;
55013;SDS011;40916;51.632;5.552;2022-09-13T21:40:59;1.1;;;4;;
55013;SDS011;40916;51.632;5.552;2022-09-13T21:46:00;2.2;;;10;;
55013;SDS011;40916;51.632;5.552;2022-09-13T21:50:59;10.8;;;22;;
55013;SDS011;40916;51.632;5.552;2022-09-13T21:55:59;1.6;;;6.4;;
55013;SDS011;40916;51.632;5.552;2022-09-13T22:01:00;1.3;;;4.1;;
55013;SDS011;40916;51.632;5.552;2022-09-13T22:05:59;1.4;;;4.4;;
55013;SDS011;40916;51.632;5.552;2022-09-13T22:11:03;1.7;;;10.1;;
55013;SDS011;40916;51.632;5.552;2022-09-13T22:16:03;1.7;;;5.7;;
55013;SDS011;40916;51.632;5.552;2022-09-13T22:21:03;1.6;;;7.8;;
55013;SDS011;40916;51.632;5.552;2022-09-13T22:25:59;1.7;;;11.6;;
55013;SDS011;40916;51.632;5.552;2022-09-13T22:31:03;1.5;;;6.7;;
55013;SDS011;40916;51.632;5.552;2022-09-13T22:35:59;1.5;;;6.4;;
55013;SDS011;40916;51.632;5.552;2022-09-13T22:41:00;2.3;;;17.4;;
55013;SDS011;40916;51.632;5.552;2022-09-13T22:46:00;1.4;;;6.7;;
55013;SDS011;40916;51.632;5.552;2022-09-13T22:50:59;1.4;;;7.5;;
55013;SDS011;40916;51.632;5.552;2022-09-13T22:56:00;1.4;;;6.8;;
55013;SDS011;40916;51.632;5.552;2022-09-13T23:01:00;1.3;;;4.5;;
55013;SDS011;40916;51.632;5.552;2022-09-13T23:05:59;1.9;;;7.4;;
55013;SDS011;40916;51.632;5.552;2022-09-13T23:11:06;1.5;;;6.7;;
55013;SDS011;40916;51.632;5.552;2022-09-13T23:16:00;1.7;;;9.8;;
55013;SDS011;40916;51.632;5.552;2022-09-13T23:20:59;1.7;;;7.6;;
55013;SDS011;40916;51.632;5.552;2022-09-13T23:26:03;1.3;;;8;;
55013;SDS011;40916;51.632;5.552;2022-09-13T23:31:07;2.3;;;11.4;;
55013;SDS011;40916;51.632;5.552;2022-09-13T23:35:59;1.2;;;3.4;;
55013;SDS011;40916;51.632;5.552;2022-09-13T23:40:59;1.7;;;9.4;;
55013;SDS011;40916;51.632;5.552;2022-09-13T23:45:59;1.3;;;6.8;;
55013;SDS011;40916;51.632;5.552;2022-09-13T23:50:59;1.4;;;5.8;;
55013;SDS011;40916;51.632;5.552;2022-09-13T23:55:59;1.7;;;7.5;;
